GDT weather

JAGS McCartney International Airport
Cockburn Town, Grand Turk , Turks and Caicos Islands

Public forecast

Using degrees Celsius for public forecast. Weather courtesy of forecast.io.

METAR (pilot weather report)

Report is more than 6 hours old.

Retrieved 2019/08/23 22:00 UTC (1 day ago):

MBGT 232200Z 10015KT 9999 SCT018 29/24 Q1014

TAF (pilot weather forecast)

Forecast is more than 12 hours old.

Retrieved 2019/07/12 00:36 UTC (1 month ago):

TAF MBGT 122240Z 1300/1324 08006KT 9999 VCSH SCT016 SCT250 BECMG 1316/1318 10016KT